Time;durP1;ratioP1;P1;durP2;ratioP2;P2;SDS_P1;SDS_P2;PMS_P1;PMS_P2;Temp;Humidity;BMP_temperature;BMP_pressure;BME280_temperature;BME280_humidity;BME280_pressure;Samples;Min_cycle;Max_cycle;Signal;HPM_P1;HPM_P2
2023/03/04 00:01:28;;;;;;;23.87;15.63;;;7.50;52.50;;;;;;5047248;28;20815;-71
2023/03/04 00:03:55;;;;;;;23.27;14.93;;;7.50;52.70;;;;;;5057250;28;20484;-72
2023/03/04 00:06:21;;;;;;;25.37;14.37;;;7.50;52.90;;;;;;5050037;28;20519;-71
2023/03/04 00:08:48;;;;;;;25.20;14.63;;;7.40;52.80;;;;;;5068992;28;20479;-71
2023/03/04 00:11:15;;;;;;;22.57;15.37;;;7.40;52.90;;;;;;5058893;28;20456;-72
2023/03/04 00:13:42;;;;;;;23.57;14.60;;;7.40;53.00;;;;;;5041668;28;20453;-71
2023/03/04 00:16:09;;;;;;;25.83;15.07;;;7.30;53.00;;;;;;5038424;28;20469;-72
2023/03/04 00:18:37;;;;;;;24.87;14.70;;;7.30;53.20;;;;;;5044578;28;20488;-72
2023/03/04 00:21:04;;;;;;;23.43;14.73;;;7.20;52.90;;;;;;5045611;28;21019;-72
2023/03/04 00:23:31;;;;;;;23.93;14.67;;;7.30;53.00;;;;;;5058510;28;20470;-72
2023/03/04 00:25:58;;;;;;;21.73;13.83;;;7.20;52.80;;;;;;5057516;28;20440;-72
2023/03/04 00:28:25;;;;;;;23.33;14.33;;;7.20;52.80;;;;;;5054293;28;20567;-72
2023/03/04 00:30:52;;;;;;;21.33;14.32;;;7.20;52.80;;;;;;5054755;28;20874;-72
2023/03/04 00:33:19;;;;;;;21.30;14.18;;;7.20;53.00;;;;;;5054918;28;20210;-72
2023/03/04 00:35:47;;;;;;;22.33;14.37;;;7.10;53.00;;;;;;5055209;28;20309;-71
2023/03/04 00:38:14;;;;;;;18.98;13.30;;;7.10;52.90;;;;;;5055059;28;20829;-71
2023/03/04 00:40:40;;;;;;;22.57;13.80;;;7.10;53.10;;;;;;5054818;28;20690;-71
2023/03/04 00:43:07;;;;;;;21.17;13.97;;;7.00;53.10;;;;;;5055142;28;20543;-72
2023/03/04 00:45:34;;;;;;;19.73;13.27;;;7.00;53.30;;;;;;5054548;28;20468;-72
2023/03/04 00:48:01;;;;;;;21.08;14.05;;;7.00;53.50;;;;;;5052443;28;20452;-72
2023/03/04 00:50:28;;;;;;;20.73;13.32;;;7.00;53.30;;;;;;5050999;28;20312;-72
2023/03/04 00:52:56;;;;;;;20.77;14.65;;;6.90;52.90;;;;;;5038321;28;20198;-72
2023/03/04 00:55:24;;;;;;;22.17;14.60;;;7.00;53.00;;;;;;5046399;28;20228;-72
2023/03/04 00:57:51;;;;;;;20.95;13.80;;;6.90;53.10;;;;;;5035424;28;20728;-71
2023/03/04 01:00:18;;;;;;;22.33;13.88;;;6.90;53.20;;;;;;5036506;28;20707;-71
2023/03/04 01:02:45;;;;;;;21.55;13.30;;;6.90;53.30;;;;;;5048860;28;20212;-72
2023/03/04 01:05:12;;;;;;;22.65;13.88;;;6.90;53.20;;;;;;5037622;28;20199;-70
2023/03/04 01:07:39;;;;;;;22.20;14.32;;;6.80;53.30;;;;;;5041653;28;20218;-72
2023/03/04 01:10:10;;;;;;;23.27;14.33;;;6.80;53.30;;;;;;5034244;28;20222;-71
2023/03/04 01:12:36;;;;;;;21.88;13.75;;;6.70;53.30;;;;;;5053431;28;20532;-71
2023/03/04 01:15:04;;;;;;;21.00;13.90;;;6.80;53.50;;;;;;5047778;28;20233;-71
2023/03/04 01:17:31;;;;;;;23.13;14.13;;;6.70;53.30;;;;;;5044448;28;20217;-71
2023/03/04 01:19:57;;;;;;;19.90;13.52;;;6.70;53.90;;;;;;5036081;28;20202;-71
2023/03/04 01:22:24;;;;;;;21.20;13.68;;;6.60;53.40;;;;;;5036967;28;20310;-71
2023/03/04 01:24:51;;;;;;;23.42;14.23;;;6.60;53.40;;;;;;5047675;28;20221;-70
2023/03/04 01:27:19;;;;;;;21.30;14.30;;;6.60;53.60;;;;;;5051919;28;20197;-71
2023/03/04 01:29:46;;;;;;;21.25;13.82;;;6.60;53.40;;;;;;5046787;28;20619;-71
2023/03/04 01:32:13;;;;;;;19.75;13.35;;;6.60;53.30;;;;;;5035172;28;20195;-71
2023/03/04 01:34:40;;;;;;;19.83;12.52;;;6.60;53.40;;;;;;5045836;28;20217;-71
2023/03/04 01:37:07;;;;;;;19.35;13.45;;;6.60;53.50;;;;;;5035794;28;20195;-71
2023/03/04 01:39:34;;;;;;;20.88;13.52;;;6.50;53.40;;;;;;5047215;28;20216;-71
2023/03/04 01:42:01;;;;;;;21.23;13.40;;;6.50;53.90;;;;;;5052719;28;20799;-71
2023/03/04 01:44:29;;;;;;;21.02;13.82;;;6.50;53.40;;;;;;5044970;28;20199;-71
2023/03/04 01:46:57;;;;;;;20.70;13.55;;;6.50;53.30;;;;;;5036173;28;20206;-71
2023/03/04 01:49:24;;;;;;;24.23;14.60;;;6.50;53.20;;;;;;5034014;28;20276;-71
2023/03/04 01:51:53;;;;;;;27.55;16.25;;;6.40;53.60;;;;;;5042718;28;20208;-71
2023/03/04 01:54:21;;;;;;;20.40;13.95;;;6.40;53.90;;;;;;5039769;28;20258;-71
2023/03/04 01:56:50;;;;;;;23.27;14.43;;;6.30;54.20;;;;;;5048367;28;20218;-71
2023/03/04 01:59:19;;;;;;;23.27;14.90;;;6.30;54.40;;;;;;5051207;28;20223;-71
2023/03/04 02:01:49;;;;;;;24.65;15.43;;;6.30;54.60;;;;;;5039295;28;20228;-71
2023/03/04 02:04:18;;;;;;;24.83;15.88;;;6.30;54.80;;;;;;5068407;28;20300;-71
2023/03/04 02:06:46;;;;;;;24.13;16.25;;;6.20;54.80;;;;;;5059598;28;20236;-71
2023/03/04 02:09:14;;;;;;;29.10;17.40;;;6.20;54.80;;;;;;5060857;28;20190;-71
2023/03/04 02:11:41;;;;;;;25.38;16.65;;;6.20;55.20;;;;;;5053012;28;20213;-71
2023/03/04 02:14:09;;;;;;;28.10;16.50;;;6.20;55.80;;;;;;5036953;28;20248;-71
2023/03/04 02:16:36;;;;;;;27.70;16.35;;;6.10;55.10;;;;;;5049856;28;20226;-71
2023/03/04 02:19:07;;;;;;;25.80;16.83;;;6.10;55.20;;;;;;5054089;28;20634;-71
2023/03/04 02:21:34;;;;;;;24.38;16.20;;;6.10;55.30;;;;;;5033134;28;20241;-71
2023/03/04 02:24:14;;;;;;;25.42;16.13;;;6.00;55.40;;;;;;5034186;28;20219;-71
2023/03/04 02:26:42;;;;;;;22.15;15.32;;;6.00;55.40;;;;;;5033477;28;20206;-71
2023/03/04 02:29:11;;;;;;;23.95;15.73;;;6.00;55.40;;;;;;5033418;28;20203;-71
2023/03/04 02:31:39;;;;;;;25.85;15.77;;;6.00;55.40;;;;;;5032494;28;20226;-71
2023/03/04 02:34:12;;;;;;;22.88;15.90;;;6.00;55.10;;;;;;5035520;28;20201;-71
2023/03/04 02:36:40;;;;;;;28.80;15.60;;;6.00;55.10;;;;;;5042012;28;20230;-71
2023/03/04 02:39:12;;;;;;;24.77;16.10;;;5.90;55.30;;;;;;5050408;28;20795;-71
2023/03/04 02:41:39;;;;;;;25.58;17.50;;;5.90;55.60;;;;;;5032839;28;20183;-71
2023/03/04 02:44:17;;;;;;;23.98;15.73;;;5.90;55.50;;;;;;5038207;28;20236;-71
2023/03/04 02:46:44;;;;;;;24.30;15.05;;;5.90;55.60;;;;;;5038046;28;20190;-71
2023/03/04 02:49:11;;;;;;;28.10;16.90;;;5.80;55.40;;;;;;5048617;28;20225;-71
2023/03/04 02:51:38;;;;;;;27.45;17.65;;;5.80;55.50;;;;;;5035294;28;20198;-71
2023/03/04 02:54:05;;;;;;;29.92;18.45;;;5.80;55.30;;;;;;5052205;28;20292;-71
2023/03/04 02:56:32;;;;;;;24.73;16.13;;;5.80;55.00;;;;;;5041834;28;20226;-71
2023/03/04 02:58:58;;;;;;;24.05;16.45;;;5.80;55.20;;;;;;5038089;28;20225;-71
2023/03/04 03:01:29;;;;;;;25.05;15.73;;;5.80;55.10;;;;;;5049986;28;20633;-71
2023/03/04 03:03:56;;;;;;;25.30;16.02;;;5.70;55.00;;;;;;5051900;28;20198;-71
2023/03/04 03:06:23;;;;;;;23.70;15.60;;;5.70;55.20;;;;;;5046602;28;20585;-71
2023/03/04 03:08:50;;;;;;;24.98;15.65;;;5.70;55.10;;;;;;5046907;28;20228;-71
2023/03/04 03:11:16;;;;;;;25.73;15.82;;;5.60;55.00;;;;;;5041568;28;20199;-71
2023/03/04 03:13:43;;;;;;;25.20;15.75;;;5.70;55.10;;;;;;5042138;28;20652;-71
2023/03/04 03:16:10;;;;;;;26.92;17.15;;;5.60;55.20;;;;;;5038080;28;20226;-70
2023/03/04 03:18:39;;;;;;;29.05;18.15;;;5.60;55.50;;;;;;5048444;28;20204;-71
2023/03/04 03:21:06;;;;;;;26.83;16.75;;;5.60;55.90;;;;;;5033517;28;20222;-71
2023/03/04 03:23:33;;;;;;;25.80;16.27;;;5.60;56.10;;;;;;5042762;28;20220;-71
2023/03/04 03:26:00;;;;;;;24.67;16.73;;;5.50;55.90;;;;;;5035195;28;20210;-71
2023/03/04 03:28:27;;;;;;;26.70;17.48;;;5.50;55.60;;;;;;5045946;28;20198;-70
2023/03/04 03:30:54;;;;;;;29.35;16.52;;;5.50;56.30;;;;;;5051841;28;20581;-72
2023/03/04 03:33:21;;;;;;;28.75;16.23;;;5.50;55.70;;;;;;5047011;28;20222;-72
2023/03/04 03:35:50;;;;;;;27.13;17.02;;;5.60;55.80;;;;;;5032187;28;20206;-72
2023/03/04 03:38:16;;;;;;;25.23;16.05;;;5.50;55.90;;;;;;5032381;28;20762;-72
2023/03/04 03:40:43;;;;;;;25.30;16.23;;;5.50;55.90;;;;;;5038324;28;20221;-72
2023/03/04 03:43:10;;;;;;;27.27;17.02;;;5.50;55.90;;;;;;5049316;28;20200;-72
2023/03/04 03:45:37;;;;;;;29.05;17.58;;;5.50;55.90;;;;;;5042083;28;20208;-72
2023/03/04 03:48:04;;;;;;;24.30;16.58;;;5.40;55.80;;;;;;5032160;28;20219;-72
2023/03/04 03:50:32;;;;;;;28.08;17.02;;;5.40;55.80;;;;;;5033199;28;20217;-72
2023/03/04 03:53:00;;;;;;;29.63;17.00;;;5.40;55.80;;;;;;5039688;28;20310;-72
2023/03/04 03:55:28;;;;;;;28.05;17.38;;;5.40;55.70;;;;;;5031774;28;20219;-72
2023/03/04 03:57:55;;;;;;;26.63;16.58;;;5.40;55.70;;;;;;5036369;28;20290;-72
2023/03/04 04:00:22;;;;;;;29.42;17.17;;;5.40;56.30;;;;;;5033705;28;20240;-72
2023/03/04 04:02:49;;;;;;;27.75;16.70;;;5.40;55.70;;;;;;5048086;28;20219;-72
2023/03/04 04:05:16;;;;;;;25.30;16.35;;;5.30;55.60;;;;;;5075523;28;20267;-72
2023/03/04 04:07:43;;;;;;;26.95;16.50;;;5.30;55.40;;;;;;5062276;28;20202;-72
2023/03/04 04:10:12;;;;;;;25.90;16.67;;;5.30;55.20;;;;;;5035760;28;20209;-72
2023/03/04 04:12:39;;;;;;;23.75;16.58;;;5.30;55.40;;;;;;5039046;28;20221;-72
2023/03/04 04:15:07;;;;;;;26.40;16.35;;;5.30;55.40;;;;;;5045174;28;20558;-71
2023/03/04 04:17:34;;;;;;;27.92;16.70;;;5.30;55.50;;;;;;5046403;28;20218;-71
2023/03/04 04:20:00;;;;;;;24.42;15.65;;;5.30;55.50;;;;;;5052217;28;20209;-71
2023/03/04 04:22:27;;;;;;;29.00;17.13;;;5.30;55.40;;;;;;5035357;28;20226;-71
2023/03/04 04:24:54;;;;;;;26.52;15.73;;;5.20;55.20;;;;;;5035290;28;20643;-71
2023/03/04 04:27:22;;;;;;;27.70;17.30;;;5.20;55.40;;;;;;5035532;28;20292;-71
2023/03/04 04:29:49;;;;;;;27.05;17.10;;;5.20;55.40;;;;;;5035296;28;20222;-71
2023/03/04 04:32:16;;;;;;;29.08;16.98;;;5.20;55.40;;;;;;5037525;28;20209;-71
2023/03/04 04:34:43;;;;;;;24.67;15.32;;;5.20;55.20;;;;;;5035332;28;20228;-71
2023/03/04 04:37:10;;;;;;;25.90;16.25;;;5.10;55.10;;;;;;5047857;28;20707;-71
2023/03/04 04:39:37;;;;;;;27.15;16.52;;;5.10;55.50;;;;;;5036813;28;20269;-71
2023/03/04 04:42:04;;;;;;;26.30;16.77;;;5.10;55.60;;;;;;5034822;28;20228;-71
2023/03/04 04:44:32;;;;;;;27.90;17.27;;;5.00;55.40;;;;;;5036993;28;20201;-71
2023/03/04 04:46:59;;;;;;;25.60;16.52;;;5.00;55.60;;;;;;5049699;28;20670;-72
2023/03/04 04:49:26;;;;;;;27.27;17.25;;;5.00;55.80;;;;;;5054305;28;20202;-71
2023/03/04 04:51:53;;;;;;;27.08;16.58;;;5.00;55.70;;;;;;5037165;28;20204;-71
2023/03/04 04:54:20;;;;;;;28.40;17.33;;;5.00;55.80;;;;;;5037822;28;20218;-71
2023/03/04 04:56:47;;;;;;;26.48;16.10;;;5.00;55.80;;;;;;5045106;28;20228;-71
2023/03/04 04:59:14;;;;;;;29.63;16.55;;;4.90;55.90;;;;;;5042883;28;20233;-71
2023/03/04 05:01:42;;;;;;;30.20;17.45;;;4.90;55.70;;;;;;5043993;28;20663;-71
2023/03/04 05:04:09;;;;;;;28.10;17.85;;;4.90;55.50;;;;;;5048085;28;20217;-72
2023/03/04 05:06:36;;;;;;;27.08;16.77;;;4.90;55.70;;;;;;5049026;28;20209;-71
2023/03/04 05:09:03;;;;;;;26.63;17.58;;;4.90;55.70;;;;;;5044995;28;20296;-71
2023/03/04 05:11:30;;;;;;;26.15;17.25;;;4.80;55.80;;;;;;5041905;28;20202;-71
2023/03/04 05:13:57;;;;;;;28.95;17.95;;;4.80;55.80;;;;;;5048998;28;20225;-71
2023/03/04 05:16:24;;;;;;;28.52;17.70;;;4.90;56.00;;;;;;5048939;28;20213;-71
2023/03/04 05:18:52;;;;;;;31.45;18.27;;;4.80;56.00;;;;;;5053760;28;20201;-71
2023/03/04 05:21:23;;;;;;;30.60;17.40;;;4.80;55.90;;;;;;5038876;28;20214;-71
2023/03/04 05:23:51;;;;;;;30.05;18.40;;;4.80;55.90;;;;;;5046192;28;20190;-71
2023/03/04 05:26:19;;;;;;;31.10;18.13;;;4.80;56.40;;;;;;5043683;28;20216;-73
2023/03/04 05:28:46;;;;;;;28.27;18.35;;;4.80;56.30;;;;;;5047684;28;20301;-71
2023/03/04 05:31:13;;;;;;;27.40;16.77;;;4.80;56.10;;;;;;5036855;28;20203;-71
2023/03/04 05:33:40;;;;;;;33.22;18.00;;;4.80;55.80;;;;;;5051593;28;20226;-72
2023/03/04 05:36:09;;;;;;;28.98;17.27;;;4.80;55.80;;;;;;5052559;28;20228;-72
2023/03/04 05:38:36;;;;;;;33.20;18.38;;;4.70;56.00;;;;;;5048750;28;20214;-71
2023/03/04 05:41:05;;;;;;;34.65;18.45;;;4.70;56.00;;;;;;5041736;28;20205;-71
2023/03/04 05:43:34;;;;;;;29.27;17.90;;;4.60;56.00;;;;;;5051643;28;20371;-71
2023/03/04 05:46:03;;;;;;;32.42;18.35;;;4.70;55.80;;;;;;5050022;28;20225;-71
2023/03/04 05:48:30;;;;;;;28.55;17.15;;;4.60;55.70;;;;;;5036652;28;20213;-71
2023/03/04 05:50:57;;;;;;;30.15;17.55;;;4.60;55.60;;;;;;5034213;28;20289;-72
2023/03/04 05:53:26;;;;;;;32.13;17.83;;;4.70;55.70;;;;;;5044093;28;20222;-71
2023/03/04 05:55:52;;;;;;;33.67;17.85;;;4.60;55.70;;;;;;5052247;28;20226;-71
2023/03/04 05:58:20;;;;;;;32.90;19.05;;;4.60;56.30;;;;;;5051427;28;20190;-71
2023/03/04 06:00:47;;;;;;;33.08;18.50;;;4.60;56.30;;;;;;5050324;28;20720;-71
2023/03/04 06:03:16;;;;;;;31.38;18.55;;;4.50;56.50;;;;;;5042114;28;20211;-71
2023/03/04 06:05:44;;;;;;;43.03;19.23;;;4.50;56.30;;;;;;5036513;28;20273;-72
2023/03/04 06:08:14;;;;;;;35.80;18.75;;;4.50;56.30;;;;;;5050362;28;20288;-71
2023/03/04 06:10:42;;;;;;;33.92;19.02;;;4.50;56.10;;;;;;5052303;28;20304;-71
2023/03/04 06:13:10;;;;;;;30.42;18.05;;;4.50;56.10;;;;;;5035860;28;20770;-72
2023/03/04 06:15:38;;;;;;;29.77;17.70;;;4.50;56.00;;;;;;5042131;28;20198;-72
2023/03/04 06:18:05;;;;;;;29.02;16.45;;;4.50;56.00;;;;;;5037484;28;20201;-72
2023/03/04 06:20:32;;;;;;;27.83;16.30;;;4.50;55.80;;;;;;5040675;28;20305;-72
2023/03/04 06:22:59;;;;;;;31.35;17.10;;;4.50;55.60;;;;;;5034521;28;20202;-72
2023/03/04 06:25:26;;;;;;;29.90;16.98;;;4.50;55.40;;;;;;5070712;28;20232;-72
2023/03/04 06:27:54;;;;;;;29.55;17.50;;;4.40;55.30;;;;;;5073247;28;20215;-72
2023/03/04 06:30:21;;;;;;;32.67;18.08;;;4.50;55.50;;;;;;5053880;28;20225;-72
2023/03/04 06:32:48;;;;;;;31.98;18.20;;;4.50;55.70;;;;;;5045483;28;20198;-72
2023/03/04 06:35:16;;;;;;;30.55;17.10;;;4.50;56.10;;;;;;5052392;28;20213;-72
2023/03/04 06:37:43;;;;;;;31.65;18.42;;;4.50;56.10;;;;;;5033013;28;20231;-72
2023/03/04 06:40:12;;;;;;;33.90;18.70;;;4.60;56.30;;;;;;5032893;28;20198;-72
2023/03/04 06:42:39;;;;;;;31.40;18.30;;;4.60;56.50;;;;;;5033894;28;20702;-72
2023/03/04 06:45:09;;;;;;;33.65;18.63;;;4.60;56.70;;;;;;5032100;28;20256;-72
2023/03/04 06:47:51;;;;;;;30.05;17.92;;;4.70;56.60;;;;;;5036781;28;20292;-72
2023/03/04 06:50:18;;;;;;;30.90;17.55;;;4.70;56.70;;;;;;5043258;28;20186;-71
2023/03/04 06:52:45;;;;;;;35.58;19.50;;;4.70;56.90;;;;;;5035239;28;20203;-71
2023/03/04 06:55:13;;;;;;;30.67;19.30;;;4.80;57.10;;;;;;5048991;28;20217;-72
2023/03/04 06:57:40;;;;;;;29.52;18.75;;;4.80;57.20;;;;;;5033243;28;20583;-71
2023/03/04 07:00:10;;;;;;;29.95;17.98;;;4.90;57.20;;;;;;5048577;28;20231;-71
2023/03/04 07:02:37;;;;;;;27.20;18.02;;;5.00;57.40;;;;;;5039266;28;20203;-71
2023/03/04 07:05:05;;;;;;;26.65;17.10;;;5.10;57.50;;;;;;5048664;28;20684;-71
2023/03/04 07:07:31;;;;;;;34.05;18.30;;;5.10;57.70;;;;;;5047204;28;20227;-71
2023/03/04 07:09:58;;;;;;;30.95;17.08;;;5.10;57.70;;;;;;5049985;28;20625;-71
2023/03/04 07:12:25;;;;;;;35.22;19.63;;;5.20;57.80;;;;;;5046333;28;20201;-71
2023/03/04 07:14:52;;;;;;;33.60;19.65;;;5.20;57.60;;;;;;5043082;28;20229;-71
2023/03/04 07:17:20;;;;;;;36.47;20.35;;;5.20;57.70;;;;;;5048015;28;20296;-72
2023/03/04 07:19:47;;;;;;;33.30;19.85;;;5.10;58.50;;;;;;5044988;28;20206;-71
2023/03/04 07:22:14;;;;;;;34.50;20.73;;;5.10;58.10;;;;;;5042453;28;20197;-71
2023/03/04 07:24:41;;;;;;;34.38;19.33;;;5.00;58.60;;;;;;5038703;28;20328;-71
2023/03/04 07:27:08;;;;;;;35.80;20.52;;;5.10;58.90;;;;;;5036724;28;20647;-71
2023/03/04 07:29:35;;;;;;;35.72;21.05;;;5.20;59.50;;;;;;5033831;28;20202;-72
2023/03/04 07:32:01;;;;;;;36.42;20.90;;;5.20;58.90;;;;;;5034695;28;20198;-72
2023/03/04 07:34:30;;;;;;;36.20;22.58;;;5.20;59.10;;;;;;5043273;28;20284;-72
2023/03/04 07:36:57;;;;;;;38.08;20.05;;;5.30;59.40;;;;;;5034803;28;20233;-72
2023/03/04 07:39:23;;;;;;;38.28;20.50;;;5.30;59.50;;;;;;5047156;28;20221;-72
2023/03/04 07:41:50;;;;;;;46.13;26.08;;;5.40;59.30;;;;;;5046901;28;20207;-72
2023/03/04 07:44:17;;;;;;;47.08;28.05;;;5.40;60.00;;;;;;5050402;28;20212;-72
2023/03/04 07:46:44;;;;;;;42.38;24.73;;;5.50;59.60;;;;;;5048336;28;20224;-72
2023/03/04 07:49:13;;;;;;;38.70;21.50;;;5.60;59.60;;;;;;5046805;28;20236;-72
2023/03/04 07:51:41;;;;;;;35.50;20.83;;;5.70;59.60;;;;;;5049854;28;20539;-72
2023/03/04 07:54:08;;;;;;;41.00;20.88;;;5.70;59.50;;;;;;5035018;28;20797;-72
2023/03/04 07:56:35;;;;;;;38.97;20.90;;;5.80;59.30;;;;;;5048492;28;20800;-72
2023/03/04 07:59:03;;;;;;;33.63;19.90;;;5.90;59.30;;;;;;5046120;28;20222;-72
2023/03/04 08:01:31;;;;;;;36.60;20.83;;;5.90;59.30;;;;;;5048784;28;20285;-72
2023/03/04 08:03:58;;;;;;;33.25;19.27;;;6.00;59.40;;;;;;5052761;28;20208;-70
2023/03/04 08:06:25;;;;;;;31.38;18.95;;;6.10;59.40;;;;;;5059594;28;20209;-72
2023/03/04 08:08:58;;;;;;;38.30;21.40;;;6.00;59.40;;;;;;5066101;28;20206;-71
2023/03/04 08:11:26;;;;;;;36.83;20.35;;;6.10;59.70;;;;;;5055862;28;20230;-72
2023/03/04 08:13:53;;;;;;;37.00;21.60;;;6.10;59.60;;;;;;5051516;28;20213;-71
2023/03/04 08:16:22;;;;;;;37.08;21.95;;;6.20;59.60;;;;;;5054964;28;20213;-71
2023/03/04 08:18:51;;;;;;;39.97;22.75;;;6.20;59.60;;;;;;5050942;28;20209;-72
2023/03/04 08:21:20;;;;;;;34.28;21.00;;;6.30;59.80;;;;;;5064759;28;20219;-72
2023/03/04 08:23:47;;;;;;;39.53;21.40;;;6.30;59.60;;;;;;5074887;28;20589;-72
2023/03/04 08:26:18;;;;;;;36.80;22.08;;;6.30;59.90;;;;;;5074895;28;20215;-72
2023/03/04 08:28:45;;;;;;;37.22;22.05;;;6.40;59.70;;;;;;5052615;28;20297;-72
2023/03/04 08:31:12;;;;;;;37.08;21.02;;;6.40;59.80;;;;;;5053705;28;20697;-72
2023/03/04 08:33:40;;;;;;;37.30;22.50;;;6.50;59.90;;;;;;5052478;28;20205;-71
2023/03/04 08:36:07;;;;;;;38.75;23.10;;;6.50;59.90;;;;;;5053952;28;20226;-71
2023/03/04 08:38:34;;;;;;;35.03;20.87;;;6.60;60.00;;;;;;5039840;28;20223;-73
2023/03/04 08:41:02;;;;;;;35.33;20.33;;;6.60;60.20;;;;;;5039787;28;20461;-72
2023/03/04 08:43:32;;;;;;;36.13;20.20;;;6.70;60.10;;;;;;5038303;28;20238;-72
2023/03/04 08:45:59;;;;;;;32.47;19.17;;;6.80;60.00;;;;;;5049206;28;20456;-72
2023/03/04 08:48:26;;;;;;;33.73;19.47;;;6.80;59.90;;;;;;5036401;28;20457;-75
2023/03/04 08:50:53;;;;;;;31.77;20.07;;;6.90;59.90;;;;;;5035401;28;20974;-72
2023/03/04 08:53:21;;;;;;;34.10;19.37;;;7.00;60.00;;;;;;5049907;28;20445;-72
2023/03/04 08:55:48;;;;;;;37.17;20.73;;;7.00;60.10;;;;;;5050886;28;21022;-72
2023/03/04 08:58:15;;;;;;;35.03;20.07;;;7.10;60.10;;;;;;5042289;28;20562;-72
2023/03/04 09:00:47;;;;;;;33.90;20.07;;;7.20;60.30;;;;;;5047439;28;20458;-72
2023/03/04 09:03:14;;;;;;;33.83;19.23;;;7.20;60.20;;;;;;5051354;28;20441;-72
2023/03/04 09:05:41;;;;;;;34.22;19.85;;;7.30;59.90;;;;;;5048213;28;20203;-72
2023/03/04 09:08:08;;;;;;;35.97;20.88;;;7.30;59.80;;;;;;5048477;28;20264;-72
2023/03/04 09:10:35;;;;;;;33.77;19.90;;;7.40;59.80;;;;;;5033879;28;20313;-72
2023/03/04 09:13:03;;;;;;;32.13;19.60;;;7.40;60.00;;;;;;5045643;28;20464;-72
2023/03/04 09:15:29;;;;;;;31.85;19.33;;;7.50;59.80;;;;;;5044147;28;20816;-72
2023/03/04 09:17:58;;;;;;;30.93;19.47;;;7.50;59.60;;;;;;5047878;28;20281;-72
2023/03/04 09:20:25;;;;;;;30.88;19.27;;;7.60;59.60;;;;;;5038767;28;20539;-73
2023/03/04 09:22:51;;;;;;;33.27;19.93;;;7.70;59.40;;;;;;5043336;28;20305;-72
2023/03/04 09:25:18;;;;;;;33.23;19.13;;;7.70;59.30;;;;;;5032503;28;20479;-73
2023/03/04 09:27:45;;;;;;;30.03;18.90;;;7.80;59.40;;;;;;5053947;28;20468;-72
2023/03/04 09:30:13;;;;;;;37.33;21.23;;;7.90;59.20;;;;;;5045693;28;21132;-73
2023/03/04 09:32:40;;;;;;;31.98;20.33;;;8.00;59.20;;;;;;5053391;28;20823;-73
2023/03/04 09:35:09;;;;;;;36.13;22.30;;;8.00;58.90;;;;;;5037795;28;20198;-73
2023/03/04 09:37:36;;;;;;;34.10;22.23;;;8.10;59.20;;;;;;5047237;28;20527;-72
2023/03/04 09:40:04;;;;;;;35.83;22.20;;;8.10;58.20;;;;;;5044967;28;20933;-72
2023/03/04 09:42:36;;;;;;;37.20;22.83;;;8.20;58.40;;;;;;5042575;28;20450;-72
2023/03/04 09:45:06;;;;;;;34.57;23.57;;;8.20;57.80;;;;;;5050235;28;20483;-73
2023/03/04 09:47:35;;;;;;;34.70;22.60;;;8.30;57.60;;;;;;5033642;28;20942;-72
2023/03/04 09:50:06;;;;;;;37.60;22.90;;;8.30;57.20;;;;;;5043136;28;20459;-72
2023/03/04 09:52:49;;;;;;;35.40;23.10;;;8.30;57.10;;;;;;5037287;28;20487;-73
2023/03/04 09:55:24;;;;;;;37.70;24.30;;;8.20;57.20;;;;;;5037519;28;20198;-73
2023/03/04 09:57:56;;;;;;;42.20;25.13;;;8.20;57.40;;;;;;5046953;28;20483;-73
2023/03/04 10:00:25;;;;;;;37.70;24.10;;;8.20;57.50;;;;;;5037422;28;21151;-73
2023/03/04 10:03:14;;;;;;;39.77;24.47;;;8.30;57.50;;;;;;5053434;28;20464;-77
2023/03/04 10:05:44;;;;;;;36.03;24.13;;;8.50;57.30;;;;;;5035962;28;20901;-76
2023/03/04 10:08:33;;;;;;;42.67;25.27;;;8.60;56.70;;;;;;5037983;28;20440;-75
2023/03/04 10:11:01;;;;;;;43.43;26.00;;;8.70;56.40;;;;;;5044262;28;20453;-75
2023/03/04 10:13:36;;;;;;;42.70;26.27;;;8.80;56.40;;;;;;5054033;28;20519;-76
2023/03/04 10:16:06;;;;;;;39.90;25.20;;;8.90;56.40;;;;;;5052941;28;20436;-76
2023/03/04 10:18:37;;;;;;;37.83;24.60;;;9.00;56.30;;;;;;5053620;28;20468;-75
2023/03/04 10:21:13;;;;;;;37.03;24.77;;;9.10;56.30;;;;;;5050996;28;20476;-77
2023/03/04 10:23:41;;;;;;;37.00;23.73;;;9.20;56.50;;;;;;5019074;28;20967;-80
2023/03/04 10:26:13;;;;;;;37.10;23.20;;;9.20;55.70;;;;;;5050800;28;20500;-79
2023/03/04 10:28:41;;;;;;;35.80;23.47;;;9.30;55.50;;;;;;5042019;28;20528;-77
2023/03/04 10:31:17;;;;;;;37.13;23.17;;;9.30;55.20;;;;;;5050598;28;20543;-80
2023/03/04 10:33:43;;;;;;;36.07;23.30;;;9.40;54.80;;;;;;5044545;28;20532;-81
2023/03/04 10:36:38;;;;;;;33.67;22.17;;;9.40;54.70;;;;;;5046909;28;20924;-80
2023/03/04 10:39:10;;;;;;;35.43;23.10;;;9.50;54.70;;;;;;5053481;28;20903;-81
2023/03/04 10:41:41;;;;;;;34.07;22.63;;;9.50;54.70;;;;;;5029825;28;20460;-81
2023/03/04 10:44:17;;;;;;;35.33;23.33;;;9.50;54.40;;;;;;5019666;28;20449;-82
2023/03/04 10:46:45;;;;;;;36.43;23.57;;;9.50;54.30;;;;;;5055276;28;20474;-81
2023/03/04 10:49:14;;;;;;;33.80;23.00;;;9.60;54.10;;;;;;5040633;28;21009;-80
2023/03/04 10:51:44;;;;;;;35.03;22.23;;;9.60;54.10;;;;;;5053319;28;20476;-80
2023/03/04 10:54:24;;;;;;;35.33;22.50;;;9.60;54.10;;;;;;5054131;28;20432;-80
2023/03/04 10:56:58;;;;;;;38.30;22.93;;;9.60;53.50;;;;;;5051609;28;20462;-80
2023/03/04 10:59:44;;;;;;;36.07;22.57;;;9.60;53.90;;;;;;5018293;28;20470;-80
2023/03/04 11:02:17;;;;;;;34.40;22.07;;;9.60;53.60;;;;;;5052976;28;20423;-81
2023/03/04 11:04:51;;;;;;;31.37;20.90;;;9.60;53.80;;;;;;5052987;28;20428;-80
2023/03/04 11:07:19;;;;;;;35.43;21.77;;;9.60;53.60;;;;;;5052893;28;21081;-81
2023/03/04 11:09:47;;;;;;;30.93;20.17;;;9.70;53.50;;;;;;5053124;28;20463;-81
2023/03/04 11:12:17;;;;;;;33.67;20.87;;;9.70;53.70;;;;;;5052119;28;20491;-81
2023/03/04 11:14:48;;;;;;;31.97;21.27;;;9.80;53.70;;;;;;5053044;28;20540;-80
2023/03/04 11:17:22;;;;;;;33.77;20.47;;;9.70;53.20;;;;;;5052826;28;20469;-80
2023/03/04 11:19:54;;;;;;;32.47;19.93;;;9.80;53.00;;;;;;5048886;28;20467;-79
2023/03/04 11:22:23;;;;;;;32.53;19.70;;;9.80;53.00;;;;;;5053120;28;20851;-80
2023/03/04 11:24:58;;;;;;;28.33;18.97;;;9.80;52.90;;;;;;5053251;28;20448;-81
2023/03/04 11:27:34;;;;;;;32.33;20.37;;;9.80;52.80;;;;;;5037109;28;20455;-81
2023/03/04 11:30:16;;;;;;;36.37;20.37;;;9.80;52.30;;;;;;5032544;28;20457;-81
2023/03/04 11:32:47;;;;;;;33.87;22.67;;;9.80;52.50;;;;;;5033017;28;20461;-81
2023/03/04 11:35:21;;;;;;;32.27;19.70;;;9.80;52.20;;;;;;5033218;28;20445;-81
2023/03/04 11:37:57;;;;;;;29.13;20.23;;;9.90;52.30;;;;;;5016309;28;20853;-82
2023/03/04 11:40:31;;;;;;;31.67;19.37;;;9.90;52.30;;;;;;5032144;28;20456;-81
2023/03/04 11:43:02;;;;;;;33.50;20.87;;;9.90;52.40;;;;;;5048249;28;20878;-80
2023/03/04 11:45:40;;;;;;;34.17;21.33;;;9.80;52.20;;;;;;5037445;28;20483;-80
2023/03/04 11:48:13;;;;;;;31.33;19.60;;;9.90;52.30;;;;;;5033115;28;20426;-79
2023/03/04 11:50:48;;;;;;;29.93;19.97;;;9.90;52.40;;;;;;5045603;28;20448;-79
2023/03/04 11:53:25;;;;;;;30.17;18.57;;;9.90;52.30;;;;;;5053672;28;20452;-79
2023/03/04 11:56:10;;;;;;;31.57;19.33;;;9.90;52.30;;;;;;5051837;28;20460;-80
2023/03/04 11:59:06;;;;;;;34.17;19.60;;;9.90;52.30;;;;;;5040929;28;20527;-80
2023/03/04 12:01:43;;;;;;;32.93;19.57;;;10.00;51.50;;;;;;5035606;28;20499;-79
2023/03/04 12:04:25;;;;;;;33.43;20.90;;;10.00;51.50;;;;;;5052609;28;20436;-79
2023/03/04 12:07:09;;;;;;;31.83;20.90;;;10.00;51.50;;;;;;5051940;28;20476;-80
2023/03/04 12:09:50;;;;;;;29.53;18.90;;;10.00;50.80;;;;;;5052925;28;20976;-79
2023/03/04 12:12:30;;;;;;;36.10;20.77;;;10.00;50.80;;;;;;5045165;28;20883;-79
2023/03/04 12:15:09;;;;;;;31.40;20.07;;;10.10;51.10;;;;;;5052450;28;20563;-79
2023/03/04 12:17:53;;;;;;;27.87;19.37;;;10.10;51.30;;;;;;5052414;28;20836;-80
2023/03/04 12:20:34;;;;;;;30.20;19.77;;;10.10;51.30;;;;;;5046542;28;21005;-80
2023/03/04 12:23:17;;;;;;;28.00;18.20;;;10.10;51.20;;;;;;5034022;28;20516;-79
2023/03/04 12:25:53;;;;;;;31.53;19.03;;;10.10;51.30;;;;;;5045552;28;20816;-79
2023/03/04 12:28:50;;;;;;;28.10;18.40;;;10.10;51.00;;;;;;5045401;28;20485;-80
2023/03/04 12:31:34;;;;;;;30.47;18.47;;;10.10;50.90;;;;;;5045309;28;20451;-79
2023/03/04 12:34:35;;;;;;;32.93;19.40;;;10.10;50.80;;;;;;5045954;28;20903;-78
2023/03/04 12:37:20;;;;;;;29.83;19.13;;;10.20;50.90;;;;;;5028646;28;20467;-78
2023/03/04 12:40:01;;;;;;;28.37;18.87;;;10.20;50.70;;;;;;5051955;28;20493;-79
2023/03/04 12:42:35;;;;;;;35.47;22.10;;;10.20;50.50;;;;;;5038772;28;20446;-79
2023/03/04 12:45:15;;;;;;;35.57;19.97;;;10.10;50.00;;;;;;5054074;28;20938;-79
2023/03/04 12:47:54;;;;;;;31.50;18.70;;;10.10;50.30;;;;;;5048275;28;20479;-79